createdAt,value
2019-05-20T00:00:04.078Z,99.70
2019-05-20T00:02:35.103Z,99.90
2019-05-20T00:05:12.323Z,99.90
2019-05-20T00:07:42.907Z,99.90
2019-05-20T00:10:13.609Z,99.90
2019-05-20T00:12:43.728Z,99.90
2019-05-20T00:15:15.455Z,99.90
2019-05-20T00:18:08.588Z,99.90
2019-05-20T00:20:40.429Z,99.90
2019-05-20T00:23:10.877Z,99.90
2019-05-20T00:25:42.882Z,99.50
2019-05-20T00:28:13.014Z,99.40
2019-05-20T00:30:43.939Z,99.70
2019-05-20T00:33:14.434Z,99.70
2019-05-20T00:35:48.783Z,99.30
2019-05-20T00:38:19.582Z,99.90
2019-05-20T00:40:51.399Z,99.90
2019-05-20T00:43:22.701Z,99.90
2019-05-20T00:45:59.496Z,99.90
2019-05-20T00:48:35.559Z,99.90
2019-05-20T00:51:36.474Z,99.80
2019-05-20T00:54:09.473Z,97.10
2019-05-20T00:56:41.303Z,98.20
2019-05-20T00:59:15.330Z,99.50
2019-05-20T01:01:45.486Z,99.40
2019-05-20T01:04:17.030Z,98.60
2019-05-20T01:07:02.498Z,98.50
2019-05-20T01:09:40.607Z,99.40
2019-05-20T01:12:42.233Z,99.60
2019-05-20T01:15:31.038Z,99.80
2019-05-20T01:18:06.734Z,98.30
2019-05-20T01:20:43.541Z,99.20
2019-05-20T01:23:20.395Z,97.80
2019-05-20T01:26:03.492Z,99.00
2019-05-20T01:29:09.307Z,98.70
2019-05-20T01:31:52.532Z,96.70
2019-05-20T01:34:43.130Z,97.30
2019-05-20T01:37:54.682Z,97.80
2019-05-20T01:41:34.067Z,97.20
2019-05-20T01:45:03.188Z,94.60
2019-05-20T01:51:24.239Z,96.40
2019-05-20T01:54:39.456Z,96.80
2019-05-20T01:58:02.459Z,96.20
2019-05-20T03:41:31.111Z,97.60
2019-05-20T03:47:25.435Z,97.80
2019-05-20T03:49:58.726Z,98.50
2019-05-20T03:52:31.640Z,98.20
2019-05-20T03:55:04.943Z,98.30
2019-05-20T03:57:38.257Z,98.60
2019-05-20T04:00:09.102Z,98.00
2019-05-20T04:02:39.754Z,97.00
2019-05-20T04:05:14.836Z,96.50
2019-05-20T04:07:51.438Z,96.50
2019-05-20T04:10:24.198Z,95.80
2019-05-20T04:13:00.627Z,96.70
2019-05-20T04:15:32.421Z,97.10
2019-05-20T04:18:04.712Z,97.00
2019-05-20T04:20:40.754Z,97.10
2019-05-20T04:23:11.704Z,97.90
2019-05-20T04:25:44.998Z,96.30
2019-05-20T04:28:17.710Z,96.50
2019-05-20T04:30:48.634Z,95.80
2019-05-20T04:33:19.200Z,96.80
2019-05-20T04:35:49.976Z,95.70
2019-05-20T04:38:20.565Z,94.80
2019-05-20T04:40:50.960Z,94.50
2019-05-20T04:43:46.638Z,94.50
2019-05-20T04:46:16.888Z,96.40
2019-05-20T04:48:50.237Z,96.50
2019-05-20T04:51:24.497Z,96.20
2019-05-20T04:53:55.267Z,97.20
2019-05-20T04:56:29.005Z,97.00
2019-05-20T04:58:59.834Z,97.70
2019-05-20T05:01:33.919Z,97.80
2019-05-20T05:04:08.478Z,96.60
2019-05-20T05:06:39.357Z,96.40
2019-05-20T05:09:11.360Z,96.20
2019-05-20T05:11:49.412Z,95.80
2019-05-20T05:14:22.558Z,96.10
2019-05-20T05:16:53.957Z,95.30
2019-05-20T05:19:25.747Z,94.80
2019-05-20T05:21:57.659Z,95.10
2019-05-20T05:24:29.004Z,94.40
2019-05-20T05:26:59.212Z,93.60
2019-05-20T05:29:36.743Z,93.90
2019-05-20T05:32:06.324Z,93.80
2019-05-20T05:34:40.279Z,92.90
2019-05-20T05:37:12.570Z,90.70
2019-05-20T05:39:43.153Z,91.90
2019-05-20T05:42:13.407Z,92.80
2019-05-20T05:44:43.543Z,93.70
2019-05-20T05:47:16.261Z,92.40
2019-05-20T05:49:49.513Z,92.60
2019-05-20T05:52:22.924Z,89.40
2019-05-20T05:54:53.425Z,91.40
2019-05-20T05:57:25.334Z,91.30
2019-05-20T06:00:00.778Z,93.20
2019-05-20T06:02:31.236Z,93.90
2019-05-20T06:05:01.351Z,93.90
2019-05-20T06:07:32.324Z,91.80
2019-05-20T06:10:03.379Z,93.10
2019-05-20T06:12:37.644Z,93.40
2019-05-20T06:15:10.685Z,92.40
2019-05-20T06:17:43.493Z,91.40
2019-05-20T06:20:35.171Z,91.30
2019-05-20T06:23:09.776Z,91.30
2019-05-20T06:26:01.516Z,90.80
2019-05-20T06:28:37.315Z,84.20
2019-05-20T06:31:10.746Z,85.20
2019-05-20T06:33:41.243Z,89.80
2019-05-20T06:36:26.070Z,91.10
2019-05-20T06:39:10.049Z,92.10
2019-05-20T06:41:45.254Z,91.70
2019-05-20T06:44:15.614Z,89.40
2019-05-20T06:46:51.863Z,92.00
2019-05-20T06:49:28.367Z,92.20
2019-05-20T06:52:37.205Z,87.70
2019-05-20T06:55:35.189Z,87.70
2019-05-20T06:58:07.121Z,86.80
2019-05-20T07:00:41.361Z,79.90
2019-05-20T07:03:12.339Z,74.30
2019-05-20T07:05:42.919Z,77.70
2019-05-20T07:08:16.739Z,77.20
2019-05-20T07:10:49.444Z,77.60
2019-05-20T07:13:23.733Z,78.70
2019-05-20T07:15:56.640Z,77.20
2019-05-20T07:18:30.490Z,73.70
2019-05-20T07:21:02.070Z,77.70
2019-05-20T07:23:34.037Z,71.80
2019-05-20T07:26:05.063Z,75.30
2019-05-20T07:28:36.811Z,72.10
2019-05-20T07:35:32.794Z,70.10
2019-05-20T07:44:58.359Z,75.10
2019-05-20T07:47:30.877Z,71.40
2019-05-20T07:50:23.670Z,68.30
2019-05-20T07:53:00.440Z,69.60
2019-05-20T07:55:32.667Z,68.90
2019-05-20T07:58:07.441Z,72.30
2019-05-20T08:00:38.494Z,71.90
2019-05-20T08:03:09.401Z,70.10
2019-05-20T08:05:39.971Z,69.30
2019-05-20T08:11:48.859Z,69.30
2019-05-20T08:14:27.108Z,65.50
2019-05-20T08:17:00.423Z,70.20
2019-05-20T08:19:36.820Z,69.90
2019-05-20T08:22:18.236Z,70.20
2019-05-20T08:24:51.686Z,68.30
2019-05-20T08:27:49.040Z,68.00
2019-05-20T08:30:33.249Z,70.00
2019-05-20T08:33:27.568Z,78.60
2019-05-20T08:36:29.599Z,76.30
2019-05-20T08:43:01.694Z,78.20
2019-05-20T08:49:47.179Z,82.80
2019-05-20T11:15:48.900Z,74.70
2019-05-20T11:19:21.179Z,74.00
2019-05-20T11:21:53.084Z,73.10
2019-05-20T11:29:02.611Z,78.80
2019-05-20T12:15:32.137Z,78.80
2019-05-20T13:59:39.235Z,78.40
2019-05-20T14:02:11.300Z,82.60
2019-05-20T14:04:41.922Z,71.80
2019-05-20T14:07:12.338Z,80.30
2019-05-20T14:09:45.900Z,73.30
2019-05-20T14:12:17.684Z,71.90
2019-05-20T14:14:50.086Z,75.70
2019-05-20T14:17:22.347Z,72.10
2019-05-20T14:19:53.679Z,69.40
2019-05-20T14:22:23.969Z,70.20
2019-05-20T14:24:55.487Z,70.60
2019-05-20T14:27:26.764Z,72.00
2019-05-20T14:29:57.186Z,70.70
2019-05-20T14:32:30.073Z,71.60
2019-05-20T14:35:02.304Z,73.30
2019-05-20T14:37:34.650Z,76.90
2019-05-20T14:40:08.327Z,70.50
2019-05-20T14:42:39.338Z,79.00
2019-05-20T14:45:09.663Z,72.80
2019-05-20T14:47:41.148Z,73.90
2019-05-20T14:50:14.396Z,80.50
2019-05-20T14:52:45.557Z,78.90
2019-05-20T14:55:18.457Z,75.70
2019-05-20T14:57:53.169Z,73.40
2019-05-20T15:00:25.731Z,76.60
2019-05-20T15:03:03.603Z,77.80
2019-05-20T15:05:36.867Z,82.10
2019-05-20T15:08:07.197Z,82.60
2019-05-20T15:10:40.203Z,80.30
2019-05-20T15:13:14.376Z,85.20
2019-05-20T15:15:48.340Z,82.40
2019-05-20T15:18:20.759Z,81.70
2019-05-20T15:21:21.424Z,80.40
2019-05-20T15:23:56.872Z,76.80
2019-05-20T15:27:13.609Z,82.00
2019-05-20T15:29:54.886Z,76.60
2019-05-20T15:32:28.045Z,73.20
2019-05-20T15:35:02.981Z,78.50
2019-05-20T15:37:35.017Z,78.60
2019-05-20T15:40:07.515Z,73.30
2019-05-20T15:43:02.729Z,72.60
2019-05-20T15:57:37.769Z,78.90
2019-05-20T16:06:32.961Z,78.20
2019-05-20T16:23:51.179Z,89.30
2019-05-20T16:30:59.785Z,89.00
2019-05-20T16:38:07.316Z,87.80
2019-05-20T16:47:49.054Z,91.30
2019-05-20T16:54:12.939Z,91.20
2019-05-20T16:57:24.824Z,92.20
2019-05-20T17:22:36.207Z,95.70
2019-05-20T17:25:09.878Z,96.70
2019-05-20T17:27:44.942Z,95.90
2019-05-20T17:30:45.816Z,96.00
2019-05-20T17:33:20.834Z,96.40
2019-05-20T17:35:51.185Z,95.10
2019-05-20T17:38:22.407Z,95.70
2019-05-20T17:40:56.154Z,96.70
2019-05-20T17:43:29.572Z,97.00
2019-05-20T17:46:01.485Z,99.20
2019-05-20T17:48:34.261Z,98.90
2019-05-20T17:51:06.074Z,98.90
2019-05-20T17:53:40.035Z,99.20
2019-05-20T17:56:12.730Z,98.20
2019-05-20T17:58:43.286Z,98.00
2019-05-20T18:01:15.912Z,99.10
2019-05-20T18:03:45.809Z,99.70
2019-05-20T18:06:18.970Z,99.40
2019-05-20T18:08:52.420Z,98.80
2019-05-20T18:11:22.899Z,99.80
2019-05-20T18:14:03.176Z,99.90
2019-05-20T18:16:36.949Z,99.90
2019-05-20T18:19:11.291Z,99.50
2019-05-20T18:21:45.170Z,99.90
2019-05-20T18:24:17.881Z,99.90
2019-05-20T18:26:50.217Z,99.90
2019-05-20T18:29:22.437Z,99.90
2019-05-20T18:32:06.552Z,99.90
2019-05-20T18:34:32.515Z,99.90
2019-05-20T18:37:03.726Z,99.90
2019-05-20T18:39:34.338Z,99.90
2019-05-20T18:42:04.774Z,99.70
2019-05-20T18:44:36.278Z,99.90
2019-05-20T18:47:06.529Z,99.90
2019-05-20T18:49:36.651Z,99.90
2019-05-20T18:52:07.447Z,99.90
2019-05-20T18:54:38.043Z,99.90
2019-05-20T18:57:09.230Z,99.90
2019-05-20T18:59:39.348Z,99.90
2019-05-20T19:02:11.344Z,99.90
2019-05-20T19:04:41.967Z,99.90
2019-05-20T19:07:12.127Z,99.90
2019-05-20T19:09:42.664Z,99.90
2019-05-20T19:12:18.382Z,99.40
2019-05-20T19:14:51.050Z,99.90
2019-05-20T19:17:24.049Z,99.90
2019-05-20T19:19:54.238Z,99.90
2019-05-20T19:22:28.096Z,99.90
2019-05-20T19:25:01.397Z,99.80
2019-05-20T19:27:36.805Z,99.90
2019-05-20T19:30:21.939Z,99.90
2019-05-20T19:33:00.791Z,99.90
2019-05-20T19:35:36.682Z,99.90
2019-05-20T19:38:09.962Z,99.90
2019-05-20T19:40:40.178Z,99.90
2019-05-20T19:43:17.164Z,99.90
2019-05-20T19:45:49.597Z,99.90
2019-05-20T19:48:45.478Z,99.90
2019-05-20T19:54:50.865Z,99.90
2019-05-20T19:57:25.299Z,99.90
2019-05-20T20:00:33.589Z,99.90
2019-05-20T20:03:11.522Z,99.90
2019-05-20T20:05:42.157Z,99.90
2019-05-20T20:08:17.197Z,99.90
2019-05-20T20:10:49.992Z,99.90
2019-05-20T20:13:20.566Z,99.90
2019-05-20T20:15:51.840Z,99.90
2019-05-20T20:18:23.474Z,99.90
2019-05-20T20:21:00.859Z,99.90
2019-05-20T20:23:31.099Z,99.90
2019-05-20T20:26:04.830Z,99.90
2019-05-20T20:28:36.948Z,99.90
2019-05-20T20:31:12.089Z,99.90
2019-05-20T20:33:43.402Z,99.90
2019-05-20T20:36:21.247Z,99.90
2019-05-20T20:38:50.588Z,99.90
2019-05-20T20:41:21.857Z,99.90
2019-05-20T20:43:55.086Z,99.90
2019-05-20T20:46:25.434Z,99.90
2019-05-20T20:49:02.819Z,99.90
2019-05-20T20:51:35.499Z,99.90
2019-05-20T20:54:12.280Z,99.90
2019-05-20T20:56:41.463Z,99.90
2019-05-20T20:59:22.484Z,99.90
2019-05-20T21:01:55.472Z,99.90
2019-05-20T21:04:51.425Z,99.90
2019-05-20T21:07:29.019Z,99.90
2019-05-20T21:10:06.651Z,99.90
2019-05-20T21:12:44.053Z,99.90
2019-05-20T21:15:14.639Z,99.90
2019-05-20T21:17:44.845Z,99.90
2019-05-20T21:23:24.453Z,99.90
2019-05-20T21:25:59.207Z,99.90
2019-05-20T21:28:30.454Z,99.90
2019-05-20T21:31:04.053Z,99.90
2019-05-20T21:33:50.915Z,99.90
2019-05-20T21:36:21.749Z,99.90
2019-05-20T21:38:56.596Z,99.90
2019-05-20T21:41:27.158Z,99.90
2019-05-20T21:44:14.538Z,99.90
2019-05-20T21:47:09.872Z,99.90
2019-05-20T21:49:42.627Z,99.90
2019-05-20T21:52:18.820Z,99.90
2019-05-20T21:54:54.693Z,99.90
2019-05-20T21:57:34.933Z,99.90
2019-05-20T22:00:15.564Z,99.90
2019-05-20T22:02:58.884Z,99.90
2019-05-20T22:05:32.632Z,99.90
2019-05-20T22:08:18.112Z,99.90
2019-05-20T22:10:52.221Z,99.90
2019-05-20T22:13:25.318Z,99.90
2019-05-20T22:15:57.667Z,99.90
2019-05-20T22:18:30.699Z,99.90
2019-05-20T22:21:05.722Z,99.90
2019-05-20T22:23:42.403Z,99.90
2019-05-20T22:26:12.842Z,99.90
2019-05-20T22:28:43.241Z,99.90
2019-05-20T22:31:16.417Z,99.90
2019-05-20T22:33:47.059Z,99.90
2019-05-20T22:36:17.346Z,99.90
2019-05-20T22:38:47.769Z,99.90
2019-05-20T22:41:23.728Z,99.90
2019-05-20T22:43:54.092Z,99.90
2019-05-20T22:46:25.218Z,99.90
2019-05-20T22:48:56.380Z,99.90
2019-05-20T22:51:27.239Z,99.90
2019-05-20T22:53:57.350Z,99.90
2019-05-20T22:56:28.899Z,99.90
2019-05-20T22:59:02.203Z,99.90
2019-05-20T23:01:34.560Z,99.90
2019-05-20T23:04:06.513Z,99.90
2019-05-20T23:06:38.630Z,99.90
2019-05-20T23:09:11.003Z,99.90
2019-05-20T23:11:43.956Z,99.90
2019-05-20T23:14:18.338Z,99.90
2019-05-20T23:16:50.560Z,99.90
2019-05-20T23:19:23.021Z,99.90
2019-05-20T23:21:53.700Z,99.90
2019-05-20T23:24:25.488Z,99.90
2019-05-20T23:26:56.688Z,99.90
2019-05-20T23:29:30.147Z,99.90
2019-05-20T23:32:07.401Z,99.90
2019-05-20T23:34:38.376Z,99.90
2019-05-20T23:37:08.778Z,99.90
2019-05-20T23:39:44.961Z,99.90
2019-05-20T23:42:18.087Z,99.90
2019-05-20T23:44:49.405Z,99.90
2019-05-20T23:47:22.359Z,99.90
2019-05-20T23:50:03.744Z,99.90
2019-05-20T23:53:17.594Z,99.90
